Time;durP1;ratioP1;P1;durP2;ratioP2;P2;SDS_P1;SDS_P2;PMS_P1;PMS_P2;Temp;Humidity;BMP_temperature;BMP_pressure;BME280_temperature;BME280_humidity;BME280_pressure;Samples;Min_cycle;Max_cycle;Signal;HPM_P1;HPM_P2
2021/08/15 00:01:13;;;;;;;;;;;;;;;21.62;66.37;101784.72;1851021;77;20246;-67
2021/08/15 00:03:45;;;;;;;;;;;;;;;21.61;66.53;101782.48;1849983;77;20181;-74
2021/08/15 00:06:16;;;;;;;;;;;;;;;21.59;66.70;101779.69;1866305;77;20253;-72
2021/08/15 00:08:48;;;;;;;;;;;;;;;21.57;66.79;101780.58;1867143;77;20288;-77
2021/08/15 00:11:20;;;;;;;;;;;;;;;21.53;66.96;101778.91;1866972;77;20538;-73
2021/08/15 00:13:54;;;;;;;;;;;;;;;21.49;67.23;101776.45;1815389;76;20184;-70
2021/08/15 00:16:26;;;;;;;;;;;;;;;21.44;67.39;101782.73;1801720;79;20215;-70
2021/08/15 00:19:04;;;;;;;;;;;;;;;21.37;67.66;101776.63;1801908;78;20207;-70
2021/08/15 00:21:34;;;;;;;;;;;;;;;21.32;67.94;101778.97;1801800;80;20177;-70
2021/08/15 00:24:05;;;;;;;;;;;;;;;21.30;68.17;101776.17;1801931;80;20199;-68
2021/08/15 00:26:37;;;;;;;;;;;;;;;21.30;68.34;101771.38;1801663;80;20227;-73
2021/08/15 00:29:10;;;;;;;;;;;;;;;21.33;68.48;101769.93;1801911;80;20248;-70
2021/08/15 00:31:41;;;;;;;;;;;;;;;21.29;68.62;101774.50;1800116;80;20315;-71
2021/08/15 00:34:13;;;;;;;;;;;;;;;21.30;68.73;101774.77;1801939;80;20191;-72
2021/08/15 00:36:44;;;;;;;;;;;;;;;21.30;68.75;101769.97;1801784;80;20168;-71
2021/08/15 00:39:16;;;;;;;;;;;;;;;21.29;68.76;101772.53;1801701;80;20175;-72
2021/08/15 00:41:47;;;;;;;;;;;;;;;21.28;68.85;101774.24;1800197;80;20644;-72
2021/08/15 00:44:19;;;;;;;;;;;;;;;21.24;68.95;101775.42;1801840;80;20576;-70
2021/08/15 00:46:50;;;;;;;;;;;;;;;21.21;69.15;101785.09;1801817;80;20176;-72
2021/08/15 00:49:22;;;;;;;;;;;;;;;21.16;69.27;101780.33;1801733;80;20203;-70
2021/08/15 00:51:54;;;;;;;;;;;;;;;21.13;69.43;101780.95;1801884;80;20294;-71
2021/08/15 00:54:25;;;;;;;;;;;;;;;21.13;69.62;101775.86;1801927;80;20271;-72
2021/08/15 00:56:59;;;;;;;;;;;;;;;21.14;69.75;101783.19;1802148;80;20623;-71
2021/08/15 00:59:31;;;;;;;;;;;;;;;21.14;69.93;101781.21;1801957;80;20255;-72
2021/08/15 01:02:04;;;;;;;;;;;;;;;21.20;70.00;101780.55;1801798;80;20179;-69
2021/08/15 01:04:40;;;;;;;;;;;;;;;21.23;69.96;101776.58;1801830;80;20175;-72
2021/08/15 01:07:13;;;;;;;;;;;;;;;21.25;69.98;101776.25;1801842;79;20571;-72
2021/08/15 01:09:46;;;;;;;;;;;;;;;21.26;70.10;101772.27;1800205;79;20525;-72
2021/08/15 01:12:18;;;;;;;;;;;;;;;21.28;70.11;101770.00;1809686;79;20554;-72
2021/08/15 01:14:50;;;;;;;;;;;;;;;21.27;70.20;101769.73;1800233;79;20250;-70
2021/08/15 01:17:22;;;;;;;;;;;;;;;21.22;70.23;101765.57;1838731;77;20214;-73
2021/08/15 01:19:54;;;;;;;;;;;;;;;21.19;70.35;101763.34;1841069;78;20262;-71
2021/08/15 01:22:27;;;;;;;;;;;;;;;21.16;70.43;101771.03;1844996;78;20591;-71
2021/08/15 01:25:01;;;;;;;;;;;;;;;21.07;70.60;101765.21;1847883;78;20277;-69
2021/08/15 01:27:31;;;;;;;;;;;;;;;21.00;71.28;101767.58;1845334;78;20378;-72
2021/08/15 01:30:06;;;;;;;;;;;;;;;21.01;71.87;101765.02;1847919;78;20218;-71
2021/08/15 01:32:42;;;;;;;;;;;;;;;21.02;72.08;101758.22;1842673;78;20251;-73
2021/08/15 01:35:14;;;;;;;;;;;;;;;21.10;72.29;101768.00;1845174;78;20663;-74
2021/08/15 01:37:45;;;;;;;;;;;;;;;21.11;72.39;101763.47;1841608;78;20250;-71
2021/08/15 01:40:17;;;;;;;;;;;;;;;21.12;72.54;101751.02;1840711;78;20179;-72
2021/08/15 01:42:49;;;;;;;;;;;;;;;21.13;72.59;101753.25;1842146;77;20270;-75
2021/08/15 01:45:20;;;;;;;;;;;;;;;21.14;72.61;101754.92;1848045;78;20591;-77
2021/08/15 01:47:52;;;;;;;;;;;;;;;21.13;72.68;101751.84;1844860;78;20551;-71
2021/08/15 01:50:24;;;;;;;;;;;;;;;21.11;72.68;101748.48;1846735;78;20284;-72
2021/08/15 01:52:57;;;;;;;;;;;;;;;21.15;72.83;101750.98;1843492;78;20265;-71
2021/08/15 01:55:29;;;;;;;;;;;;;;;21.18;72.92;101744.70;1846170;78;20246;-70
2021/08/15 01:58:01;;;;;;;;;;;;;;;21.20;72.76;101746.64;1807994;75;20237;-72
2021/08/15 02:00:33;;;;;;;;;;;;;;;21.18;72.72;101751.77;1751454;81;20338;-72
2021/08/15 02:03:08;;;;;;;;;;;;;;;21.20;72.68;101746.64;1763155;79;20248;-70
2021/08/15 02:05:42;;;;;;;;;;;;;;;21.22;72.59;101749.44;1804138;79;20186;-71
2021/08/15 02:08:13;;;;;;;;;;;;;;;21.25;72.50;101750.81;1804238;79;20752;-71
2021/08/15 02:10:45;;;;;;;;;;;;;;;21.25;72.47;101747.43;1804287;79;20185;-71
2021/08/15 02:13:18;;;;;;;;;;;;;;;21.28;72.49;101751.63;1804330;79;20614;-74
2021/08/15 02:15:50;;;;;;;;;;;;;;;21.27;72.50;101749.36;1804125;79;20186;-75
2021/08/15 02:18:23;;;;;;;;;;;;;;;21.25;72.57;101747.43;1804107;79;20190;-75
2021/08/15 02:20:55;;;;;;;;;;;;;;;21.20;72.59;101750.88;1802002;78;20185;-74
2021/08/15 02:23:26;;;;;;;;;;;;;;;21.19;72.69;101749.20;1804234;78;20588;-75
2021/08/15 02:25:58;;;;;;;;;;;;;;;21.20;72.63;101753.71;1804374;79;20554;-73
2021/08/15 02:28:31;;;;;;;;;;;;;;;21.12;72.74;101748.75;1804326;79;20189;-74
2021/08/15 02:31:03;;;;;;;;;;;;;;;21.06;73.00;101745.73;1802802;76;20440;-71
2021/08/15 02:33:34;;;;;;;;;;;;;;;21.05;73.16;101755.36;1798900;80;20258;-71
2021/08/15 02:36:06;;;;;;;;;;;;;;;21.07;73.30;101745.44;1798701;80;20265;-72
2021/08/15 02:38:38;;;;;;;;;;;;;;;21.08;73.38;101750.53;1796028;78;20257;-72
2021/08/15 02:41:10;;;;;;;;;;;;;;;21.11;73.40;101751.31;1784565;78;20625;-72
2021/08/15 02:43:42;;;;;;;;;;;;;;;21.17;73.35;101751.51;1798625;80;20230;-72
2021/08/15 02:46:13;;;;;;;;;;;;;;;21.14;73.18;101748.72;1798501;80;20316;-72
2021/08/15 02:48:46;;;;;;;;;;;;;;;21.11;73.22;101749.34;1798784;80;20186;-73
2021/08/15 02:51:18;;;;;;;;;;;;;;;21.05;73.25;101749.70;1798853;80;20194;-73
2021/08/15 02:53:50;;;;;;;;;;;;;;;20.99;73.43;101753.75;1798799;80;20289;-72
2021/08/15 02:56:22;;;;;;;;;;;;;;;20.98;73.81;101755.72;1798898;80;20599;-72
2021/08/15 02:58:54;;;;;;;;;;;;;;;20.93;73.95;101753.55;1798600;80;20245;-71
2021/08/15 03:01:25;;;;;;;;;;;;;;;20.96;74.08;101750.95;1798730;80;20229;-72
2021/08/15 03:03:57;;;;;;;;;;;;;;;21.00;73.93;101754.02;1798684;80;20270;-71
2021/08/15 03:06:30;;;;;;;;;;;;;;;20.98;74.17;101752.89;1817578;77;20223;-71
2021/08/15 03:09:03;;;;;;;;;;;;;;;20.95;74.17;101755.48;1838803;78;20182;-71
2021/08/15 03:11:35;;;;;;;;;;;;;;;20.91;74.25;101755.84;1838919;78;20179;-71
2021/08/15 03:14:06;;;;;;;;;;;;;;;20.91;74.32;101753.84;1839068;77;20183;-72
2021/08/15 03:16:39;;;;;;;;;;;;;;;20.93;74.37;101763.44;1838953;78;20531;-72
2021/08/15 03:19:11;;;;;;;;;;;;;;;20.92;74.42;101766.00;1846292;77;20622;-72
2021/08/15 03:21:44;;;;;;;;;;;;;;;20.95;74.46;101763.96;1829111;77;20581;-72
2021/08/15 03:24:16;;;;;;;;;;;;;;;20.99;74.39;101764.48;1862984;76;20201;-74
2021/08/15 03:26:49;;;;;;;;;;;;;;;21.03;74.25;101760.48;1857527;77;20174;-73
2021/08/15 03:29:21;;;;;;;;;;;;;;;21.05;74.17;101759.59;1857642;76;20182;-71
2021/08/15 03:31:53;;;;;;;;;;;;;;;21.04;74.11;101764.39;1857530;76;20181;-71
2021/08/15 03:34:24;;;;;;;;;;;;;;;21.02;74.15;101763.86;1862755;77;20248;-71
2021/08/15 03:36:58;;;;;;;;;;;;;;;21.00;74.30;101762.48;1862796;76;20231;-71
2021/08/15 03:39:30;;;;;;;;;;;;;;;21.04;74.37;101769.22;1862678;75;20180;-71
2021/08/15 03:42:02;;;;;;;;;;;;;;;21.03;74.59;101769.78;1862627;77;20253;-70
2021/08/15 03:44:33;;;;;;;;;;;;;;;21.08;74.93;101771.72;1863044;75;20320;-72
2021/08/15 03:47:05;;;;;;;;;;;;;;;21.12;75.10;101771.36;1857656;76;20174;-71
2021/08/15 03:49:37;;;;;;;;;;;;;;;21.17;75.18;101772.70;1830106;77;20550;-71
2021/08/15 03:52:09;;;;;;;;;;;;;;;21.19;75.27;101768.43;1862710;77;20286;-71
2021/08/15 03:54:42;;;;;;;;;;;;;;;21.16;75.40;101771.03;1862630;77;20181;-70
2021/08/15 03:57:14;;;;;;;;;;;;;;;21.17;75.56;101778.35;1862603;77;20598;-71
2021/08/15 03:59:46;;;;;;;;;;;;;;;21.21;75.70;101768.95;1862582;77;20189;-72
2021/08/15 04:02:17;;;;;;;;;;;;;;;21.26;75.77;101773.13;1862623;77;20228;-72
2021/08/15 04:04:49;;;;;;;;;;;;;;;21.29;75.70;101770.27;1863670;73;20628;-72
2021/08/15 04:07:20;;;;;;;;;;;;;;;21.34;75.63;101772.42;1858257;77;20637;-70
2021/08/15 04:09:53;;;;;;;;;;;;;;;21.40;75.40;101766.97;1851917;77;20256;-70
2021/08/15 04:12:24;;;;;;;;;;;;;;;21.45;75.42;101774.55;1861715;77;20180;-69
2021/08/15 04:14:56;;;;;;;;;;;;;;;21.46;75.50;101773.40;1861751;76;20284;-68
2021/08/15 04:17:27;;;;;;;;;;;;;;;21.49;75.62;101780.69;1862117;76;20319;-69
2021/08/15 04:19:59;;;;;;;;;;;;;;;21.53;75.79;101774.67;1861905;77;20285;-69
2021/08/15 04:22:31;;;;;;;;;;;;;;;21.56;75.52;101776.05;1826374;77;20308;-69
2021/08/15 04:25:02;;;;;;;;;;;;;;;21.53;75.53;101776.67;1848253;77;20247;-69
2021/08/15 04:27:35;;;;;;;;;;;;;;;21.52;75.53;101777.23;1828083;78;20248;-69
2021/08/15 04:30:07;;;;;;;;;;;;;;;21.55;75.32;101770.98;1828032;78;20239;-69
2021/08/15 04:32:39;;;;;;;;;;;;;;;21.60;75.26;101772.88;1828131;77;20287;-69
2021/08/15 04:35:11;;;;;;;;;;;;;;;21.70;75.15;101782.06;1829063;77;20278;-67
2021/08/15 04:37:44;;;;;;;;;;;;;;;21.86;74.81;101778.41;1861937;76;20330;-68
2021/08/15 04:40:16;;;;;;;;;;;;;;;22.04;74.12;101773.28;1861622;77;20261;-70
2021/08/15 04:42:47;;;;;;;;;;;;;;;22.41;73.68;101773.14;1861566;77;20626;-68
2021/08/15 04:45:21;;;;;;;;;;;;;;;22.95;72.49;101774.03;1861943;77;20188;-70
2021/08/15 04:47:52;;;;;;;;;;;;;;;23.57;70.28;101775.16;1861701;76;20280;-70
2021/08/15 04:50:27;;;;;;;;;;;;;;;24.07;68.51;101765.41;1848828;77;20525;-72
2021/08/15 04:52:58;;;;;;;;;;;;;;;24.63;66.53;101772.67;1861656;76;20244;-71
2021/08/15 04:55:30;;;;;;;;;;;;;;;25.14;62.74;101782.77;1827974;77;20617;-70
2021/08/15 04:58:01;;;;;;;;;;;;;;;25.53;61.45;101782.71;1844345;77;20256;-70
2021/08/15 05:00:34;;;;;;;;;;;;;;;25.86;59.59;101778.17;1827834;77;20292;-71
2021/08/15 05:03:07;;;;;;;;;;;;;;;26.11;59.49;101780.18;1861800;77;20320;-69
2021/08/15 05:05:39;;;;;;;;;;;;;;;26.42;58.43;101772.22;1879042;75;20313;-70
2021/08/15 05:08:11;;;;;;;;;;;;;;;26.68;58.07;101778.68;1832967;78;20235;-69
2021/08/15 05:10:43;;;;;;;;;;;;;;;26.94;56.59;101778.81;1785415;79;20251;-71
2021/08/15 05:13:17;;;;;;;;;;;;;;;27.19;53.44;101776.42;1804174;79;20193;-69
2021/08/15 05:15:49;;;;;;;;;;;;;;;27.41;53.21;101776.12;1804320;79;20180;-70
2021/08/15 05:18:20;;;;;;;;;;;;;;;27.64;51.74;101774.59;1803994;78;20173;-69
2021/08/15 05:20:52;;;;;;;;;;;;;;;27.80;50.94;101770.78;1803870;79;20265;-70
2021/08/15 05:23:24;;;;;;;;;;;;;;;28.01;51.31;101774.42;1804007;79;20250;-71
2021/08/15 05:25:55;;;;;;;;;;;;;;;28.20;49.47;101778.20;1772737;80;20255;-70
2021/08/15 05:28:28;;;;;;;;;;;;;;;28.41;48.88;101776.13;1772684;81;20255;-70
2021/08/15 05:31:01;;;;;;;;;;;;;;;28.60;46.87;101771.53;1777663;78;20216;-69
2021/08/15 05:33:33;;;;;;;;;;;;;;;28.68;47.60;101772.63;1848402;76;20219;-71
2021/08/15 05:36:04;;;;;;;;;;;;;;;28.82;46.39;101774.53;1854686;76;20244;-69
2021/08/15 05:38:36;;;;;;;;;;;;;;;28.98;46.31;101770.62;1789228;79;20358;-71
2021/08/15 05:41:08;;;;;;;;;;;;;;;29.05;46.12;101770.86;1815831;78;20174;-69
2021/08/15 05:43:39;;;;;;;;;;;;;;;29.22;45.42;101765.50;1790889;79;20181;-68
2021/08/15 05:46:11;;;;;;;;;;;;;;;29.33;45.13;101766.07;1793089;79;20284;-69
2021/08/15 05:48:43;;;;;;;;;;;;;;;29.37;45.44;101775.63;1798628;79;20351;-70
2021/08/15 05:51:16;;;;;;;;;;;;;;;29.38;45.54;101775.85;1798746;79;20262;-69
2021/08/15 05:53:47;;;;;;;;;;;;;;;29.46;45.73;101776.92;1788063;79;20325;-70
2021/08/15 05:56:19;;;;;;;;;;;;;;;29.67;45.58;101774.73;1827775;77;20272;-69
2021/08/15 05:58:50;;;;;;;;;;;;;;;29.92;44.22;101774.88;1824184;77;20240;-68
2021/08/15 06:01:23;;;;;;;;;;;;;;;30.10;43.67;101769.95;1815390;78;20325;-71
2021/08/15 06:03:55;;;;;;;;;;;;;;;30.23;43.32;101771.55;1800680;79;20548;-69
2021/08/15 06:06:27;;;;;;;;;;;;;;;30.34;42.70;101764.08;1824439;77;20323;-69
2021/08/15 06:08:59;;;;;;;;;;;;;;;30.54;42.76;101770.75;1880957;76;20184;-70
2021/08/15 06:11:33;;;;;;;;;;;;;;;30.74;42.01;101761.09;1880525;76;20252;-69
2021/08/15 06:14:05;;;;;;;;;;;;;;;30.96;40.85;101767.00;1878078;76;20171;-68
2021/08/15 06:16:37;;;;;;;;;;;;;;;31.13;40.67;101769.48;1854474;76;20252;-69
2021/08/15 06:19:10;;;;;;;;;;;;;;;31.21;39.78;101762.73;1849214;77;20179;-69
2021/08/15 06:21:42;;;;;;;;;;;;;;;31.27;39.12;101762.67;1884008;75;20218;-69
2021/08/15 06:24:14;;;;;;;;;;;;;;;31.37;38.57;101752.02;1879776;76;20197;-70
2021/08/15 06:26:46;;;;;;;;;;;;;;;31.52;38.71;101761.20;1833566;77;20245;-69
2021/08/15 06:29:17;;;;;;;;;;;;;;;31.63;39.02;101755.10;1795684;79;20259;-69
2021/08/15 06:31:50;;;;;;;;;;;;;;;31.72;38.92;101757.16;1852509;77;20592;-71
2021/08/15 06:34:22;;;;;;;;;;;;;;;31.77;38.69;101754.00;1806885;79;20252;-69
2021/08/15 06:36:54;;;;;;;;;;;;;;;31.81;38.30;101756.95;1866097;76;20184;-70
2021/08/15 06:39:26;;;;;;;;;;;;;;;31.88;38.12;101755.06;1865596;76;20254;-71
2021/08/15 06:41:59;;;;;;;;;;;;;;;32.01;38.30;101745.06;1871146;76;20334;-69
2021/08/15 06:44:30;;;;;;;;;;;;;;;32.15;38.07;101743.91;1878664;76;20244;-70
2021/08/15 06:47:02;;;;;;;;;;;;;;;32.28;37.97;101743.98;1885153;76;20256;-70
2021/08/15 06:49:36;;;;;;;;;;;;;;;32.36;38.24;101741.48;1876619;76;20289;-70
2021/08/15 06:52:08;;;;;;;;;;;;;;;32.45;37.41;101746.38;1872888;76;20296;-71
2021/08/15 06:54:40;;;;;;;;;;;;;;;32.48;36.95;101744.78;1877702;76;20251;-71
2021/08/15 06:57:12;;;;;;;;;;;;;;;32.56;36.63;101743.09;1879454;76;20246;-69
2021/08/15 06:59:44;;;;;;;;;;;;;;;32.49;35.05;101744.41;1876015;76;20240;-69
2021/08/15 07:02:15;;;;;;;;;;;;;;;32.42;35.75;101743.43;1878845;76;20367;-71
2021/08/15 07:04:47;;;;;;;;;;;;;;;32.37;36.19;101740.86;1845168;76;20190;-70
2021/08/15 07:07:18;;;;;;;;;;;;;;;32.41;36.70;101743.21;1815621;78;20371;-73
2021/08/15 07:09:51;;;;;;;;;;;;;;;32.48;36.55;101736.99;1832073;76;20264;-71
2021/08/15 07:12:23;;;;;;;;;;;;;;;32.50;35.42;101736.58;1820748;77;20251;-72
2021/08/15 07:14:54;;;;;;;;;;;;;;;32.52;36.75;101738.49;1794879;79;20257;-71
2021/08/15 07:17:26;;;;;;;;;;;;;;;32.57;36.59;101734.67;1826966;77;20268;-70
2021/08/15 07:19:57;;;;;;;;;;;;;;;32.64;36.64;101737.67;1813054;77;20279;-73
2021/08/15 07:22:29;;;;;;;;;;;;;;;32.80;35.12;101732.66;1831410;77;20184;-71
2021/08/15 07:25:03;;;;;;;;;;;;;;;32.87;34.72;101734.20;1813906;77;20344;-73
2021/08/15 07:27:35;;;;;;;;;;;;;;;32.90;34.81;101740.66;1823775;77;20187;-73
2021/08/15 07:30:08;;;;;;;;;;;;;;;32.85;34.54;101733.77;1829607;77;20254;-72
2021/08/15 07:32:56;;;;;;;;;;;;;;;32.87;33.98;101729.89;1826383;77;20253;-72
2021/08/15 07:35:27;;;;;;;;;;;;;;;32.76;32.75;101724.55;1790881;79;20535;-70
2021/08/15 07:37:59;;;;;;;;;;;;;;;32.49;32.00;101735.77;1812709;77;20272;-72
2021/08/15 07:40:31;;;;;;;;;;;;;;;32.11;32.92;101734.98;1780960;79;20218;-71
2021/08/15 07:43:04;;;;;;;;;;;;;;;31.83;34.12;101719.42;1807569;74;20190;-71
2021/08/15 07:45:36;;;;;;;;;;;;;;;31.71;35.54;101723.02;1836871;77;20219;-72
2021/08/15 07:48:08;;;;;;;;;;;;;;;31.69;36.30;101720.54;1830362;77;20299;-71
2021/08/15 07:50:40;;;;;;;;;;;;;;;31.68;36.31;101720.91;1831933;77;20261;-71
2021/08/15 07:53:18;;;;;;;;;;;;;;;31.65;36.03;101717.38;1832860;77;20243;-72
2021/08/15 07:55:50;;;;;;;;;;;;;;;31.55;35.87;101705.03;1830417;77;20180;-73
2021/08/15 07:58:22;;;;;;;;;;;;;;;31.42;35.77;101704.95;1831765;77;20296;-76
2021/08/15 08:00:53;;;;;;;;;;;;;;;31.22;35.00;101704.67;1835359;77;20252;-74
2021/08/15 08:03:25;;;;;;;;;;;;;;;31.04;34.59;101701.95;1856688;77;20181;-74
2021/08/15 08:05:57;;;;;;;;;;;;;;;30.93;35.24;101706.01;1857703;76;20306;-74
2021/08/15 08:08:29;;;;;;;;;;;;;;;30.87;34.67;101701.76;1844219;77;20164;-71
2021/08/15 08:11:00;;;;;;;;;;;;;;;30.78;34.85;101698.27;1829287;78;20172;-74
2021/08/15 08:13:32;;;;;;;;;;;;;;;30.74;35.16;101698.77;1836831;73;20226;-71
2021/08/15 08:16:03;;;;;;;;;;;;;;;30.74;34.61;101695.90;1832297;78;20345;-70
2021/08/15 08:18:35;;;;;;;;;;;;;;;30.74;35.77;101690.78;1814717;78;20260;-69
2021/08/15 08:21:07;;;;;;;;;;;;;;;30.79;36.23;101691.32;1818140;78;20253;-71
2021/08/15 08:23:40;;;;;;;;;;;;;;;30.74;34.56;101688.73;1832178;78;20570;-71
2021/08/15 08:26:11;;;;;;;;;;;;;;;30.64;34.68;101693.62;1832354;78;20254;-71
2021/08/15 08:28:44;;;;;;;;;;;;;;;30.45;33.26;101682.62;1832210;78;20182;-70
2021/08/15 08:31:15;;;;;;;;;;;;;;;30.24;33.41;101684.31;1832376;78;20186;-69
2021/08/15 08:33:48;;;;;;;;;;;;;;;30.16;34.88;101682.47;1831515;77;20206;-69
2021/08/15 08:36:20;;;;;;;;;;;;;;;30.16;34.33;101683.91;1832183;78;20365;-69
2021/08/15 08:38:52;;;;;;;;;;;;;;;29.99;33.45;101679.06;1832240;78;20604;-70
2021/08/15 08:41:23;;;;;;;;;;;;;;;29.88;34.75;101684.50;1832221;78;20638;-70
2021/08/15 08:43:55;;;;;;;;;;;;;;;29.85;34.66;101685.25;1832092;77;20241;-70
2021/08/15 08:46:26;;;;;;;;;;;;;;;29.83;34.09;101680.47;1825389;78;20323;-70
2021/08/15 08:48:58;;;;;;;;;;;;;;;29.81;34.53;101674.28;1809127;76;20179;-70
2021/08/15 08:51:30;;;;;;;;;;;;;;;29.87;34.93;101676.27;1810779;77;20194;-70
2021/08/15 08:54:05;;;;;;;;;;;;;;;29.97;35.48;101682.91;1813718;79;20207;-67
2021/08/15 08:56:38;;;;;;;;;;;;;;;29.99;34.42;101676.20;1816392;79;20552;-69
2021/08/15 08:59:10;;;;;;;;;;;;;;;29.97;34.19;101666.56;1819771;79;20277;-70
2021/08/15 09:01:45;;;;;;;;;;;;;;;29.96;34.37;101664.87;1819915;79;20595;-71
2021/08/15 09:04:17;;;;;;;;;;;;;;;29.97;34.55;101661.41;1816791;79;20186;-69
2021/08/15 09:06:48;;;;;;;;;;;;;;;29.95;35.04;101653.17;1817342;79;20234;-69
2021/08/15 09:09:21;;;;;;;;;;;;;;;29.98;35.28;101652.45;1811234;79;20302;-70
2021/08/15 09:11:54;;;;;;;;;;;;;;;30.02;35.34;101651.93;1802443;79;20220;-68
2021/08/15 09:14:30;;;;;;;;;;;;;;;30.06;35.34;101654.89;1760274;79;20175;-69
2021/08/15 09:17:06;;;;;;;;;;;;;;;30.09;34.83;101649.28;1814307;79;20249;-70
2021/08/15 09:19:47;;;;;;;;;;;;;;;30.12;35.28;101648.56;1819774;79;20218;-71
2021/08/15 09:22:27;;;;;;;;;;;;;;;30.15;35.03;101642.69;1820279;77;20222;-70
2021/08/15 09:25:10;;;;;;;;;;;;;;;30.11;34.29;101636.02;1819760;79;20247;-72
2021/08/15 09:27:55;;;;;;;;;;;;;;;30.07;34.06;101638.77;1818131;79;20238;-70
2021/08/15 09:30:31;;;;;;;;;;;;;;;30.08;34.43;101635.31;1819581;79;20255;-69
2021/08/15 09:33:06;;;;;;;;;;;;;;;30.06;34.29;101639.97;1853206;75;20766;-71
2021/08/15 09:35:42;;;;;;;;;;;;;;;30.01;34.14;101637.37;1889759;74;20252;-72
2021/08/15 09:38:18;;;;;;;;;;;;;;;30.00;34.83;101641.44;1885973;76;20281;-70
2021/08/15 09:40:52;;;;;;;;;;;;;;;29.95;32.99;101635.98;1886087;76;20171;-75
2021/08/15 09:43:26;;;;;;;;;;;;;;;29.87;33.59;101630.41;1886022;76;20278;-70
2021/08/15 09:45:59;;;;;;;;;;;;;;;29.82;34.07;101634.39;1885573;76;20163;-70
2021/08/15 09:48:35;;;;;;;;;;;;;;;29.79;34.03;101626.55;1885532;76;20217;-70
2021/08/15 09:51:15;;;;;;;;;;;;;;;29.79;34.25;101619.38;1885556;75;20294;-70
2021/08/15 09:53:56;;;;;;;;;;;;;;;29.80;34.36;101621.04;1880973;76;20182;-71
2021/08/15 09:56:39;;;;;;;;;;;;;;;29.81;33.87;101618.41;1879002;76;20246;-73
2021/08/15 09:59:19;;;;;;;;;;;;;;;29.83;34.38;101613.74;1881952;76;20246;-71
2021/08/15 10:01:55;;;;;;;;;;;;;;;29.80;32.96;101616.74;1885398;74;20199;-71
2021/08/15 10:04:27;;;;;;;;;;;;;;;29.70;33.21;101620.75;1906133;75;20520;-72
2021/08/15 10:06:59;;;;;;;;;;;;;;;29.68;33.59;101609.66;1872813;76;20225;-71
2021/08/15 10:09:32;;;;;;;;;;;;;;;29.69;32.53;101609.03;1883611;76;20266;-72
2021/08/15 10:12:06;;;;;;;;;;;;;;;29.69;32.82;101609.87;1882916;76;20252;-69
2021/08/15 10:14:38;;;;;;;;;;;;;;;29.73;33.31;101607.11;1884101;76;20235;-71
2021/08/15 10:17:13;;;;;;;;;;;;;;;29.72;32.50;101611.18;1883817;76;20396;-74
2021/08/15 10:19:59;;;;;;;;;;;;;;;29.70;32.91;101605.00;1860465;76;20626;-71
2021/08/15 10:22:33;;;;;;;;;;;;;;;29.68;32.58;101602.48;1851575;77;20197;-72
2021/08/15 10:25:07;;;;;;;;;;;;;;;29.63;32.83;101597.02;1878885;76;20250;-70
2021/08/15 10:27:47;;;;;;;;;;;;;;;29.58;32.72;101592.98;1885286;76;20274;-70
2021/08/15 10:30:26;;;;;;;;;;;;;;;29.53;33.02;101600.41;1885544;76;20218;-71
2021/08/15 10:33:01;;;;;;;;;;;;;;;29.51;32.76;101588.46;1885291;74;20242;-73
2021/08/15 10:35:40;;;;;;;;;;;;;;;29.48;33.35;101588.36;1889928;76;20586;-70
2021/08/15 10:38:21;;;;;;;;;;;;;;;29.50;34.03;101578.80;1890518;76;20219;-70
2021/08/15 10:40:52;;;;;;;;;;;;;;;29.52;33.86;101574.98;1889497;74;20251;-70
2021/08/15 10:43:29;;;;;;;;;;;;;;;29.48;32.60;101578.34;1885612;76;20168;-68
2021/08/15 10:46:22;;;;;;;;;;;;;;;29.32;32.41;101578.88;1885237;76;20294;-68
2021/08/15 10:48:53;;;;;;;;;;;;;;;29.20;33.43;101575.48;1877590;76;20297;-72
2021/08/15 10:51:44;;;;;;;;;;;;;;;29.17;33.82;101576.82;1857855;76;20239;-71
2021/08/15 10:54:28;;;;;;;;;;;;;;;29.17;33.68;101568.23;1862793;76;20334;-71
2021/08/15 10:57:04;;;;;;;;;;;;;;;29.18;33.75;101572.17;1887808;76;20627;-72
2021/08/15 10:59:41;;;;;;;;;;;;;;;29.22;33.93;101566.55;1891950;76;20178;-72
2021/08/15 11:02:14;;;;;;;;;;;;;;;29.24;34.02;101559.27;1884281;76;20260;-72
2021/08/15 11:05:03;;;;;;;;;;;;;;;29.25;33.98;101573.80;1862838;75;20216;-68
2021/08/15 11:07:40;;;;;;;;;;;;;;;29.24;34.35;101564.98;1840564;76;20207;-73
2021/08/15 11:10:13;;;;;;;;;;;;;;;29.27;34.10;101561.97;1828766;78;20258;-73
2021/08/15 11:13:22;;;;;;;;;;;;;;;29.27;34.17;101569.97;1826086;78;20678;-73
2021/08/15 11:15:54;;;;;;;;;;;;;;;29.28;33.97;101564.47;1735756;81;20190;-74
2021/08/15 11:18:27;;;;;;;;;;;;;;;29.30;33.64;101559.82;1744213;81;20370;-74
2021/08/15 11:20:58;;;;;;;;;;;;;;;29.29;33.69;101562.45;1765432;78;20549;-70
2021/08/15 11:23:32;;;;;;;;;;;;;;;29.31;34.24;101552.30;1798841;78;20269;-75
2021/08/15 11:26:07;;;;;;;;;;;;;;;29.32;33.62;101553.97;1804133;79;20243;-70
2021/08/15 11:28:39;;;;;;;;;;;;;;;29.30;34.04;101554.94;1802580;79;20243;-72
2021/08/15 11:31:10;;;;;;;;;;;;;;;29.31;34.36;101553.73;1804960;79;20532;-70
2021/08/15 11:33:42;;;;;;;;;;;;;;;29.30;33.25;101544.92;1809670;79;20180;-72
2021/08/15 11:36:15;;;;;;;;;;;;;;;29.30;33.55;101545.50;1813353;79;20287;-71
2021/08/15 11:38:50;;;;;;;;;;;;;;;29.30;34.00;101542.06;1813867;78;20183;-74
2021/08/15 11:41:22;;;;;;;;;;;;;;;29.29;33.55;101536.69;1809766;79;20203;-74
2021/08/15 11:43:56;;;;;;;;;;;;;;;29.31;33.36;101543.72;1812016;79;20832;-74
2021/08/15 11:46:28;;;;;;;;;;;;;;;29.33;33.58;101539.88;1806906;79;20179;-73
2021/08/15 11:49:00;;;;;;;;;;;;;;;29.33;33.68;101544.76;1814333;79;20325;-73
2021/08/15 11:51:32;;;;;;;;;;;;;;;29.33;33.52;101534.16;1819271;79;20247;-76
2021/08/15 11:54:03;;;;;;;;;;;;;;;29.35;33.44;101530.93;1814108;79;20287;-73
2021/08/15 11:56:34;;;;;;;;;;;;;;;29.33;33.58;101516.13;1803596;79;20195;-72
2021/08/15 11:59:08;;;;;;;;;;;;;;;29.31;33.85;101523.67;1796673;79;20195;-75
2021/08/15 12:01:40;;;;;;;;;;;;;;;29.31;34.51;101524.26;1800374;78;20306;-74
2021/08/15 12:04:11;;;;;;;;;;;;;;;29.26;34.01;101516.78;1829838;78;20219;-75
2021/08/15 12:06:43;;;;;;;;;;;;;;;29.24;34.36;101517.75;1792963;78;20282;-74
2021/08/15 12:09:28;;;;;;;;;;;;;;;29.22;35.00;101513.59;1831006;78;20183;-73
2021/08/15 12:11:56;;;;;;;;;;;;;;;29.19;35.50;101507.15;1823218;78;20276;-73
2021/08/15 12:14:37;;;;;;;;;;;;;;;29.17;35.78;101504.64;1817095;79;20259;-74
2021/08/15 12:17:10;;;;;;;;;;;;;;;29.16;35.53;101508.71;1811376;78;20575;-74
2021/08/15 12:19:46;;;;;;;;;;;;;;;29.15;34.29;101507.63;1813194;79;20755;-73
2021/08/15 12:22:19;;;;;;;;;;;;;;;29.16;34.28;101500.73;1812822;79;20206;-73
2021/08/15 12:24:59;;;;;;;;;;;;;;;29.15;34.32;101509.91;1805498;79;20219;-73
2021/08/15 12:27:31;;;;;;;;;;;;;;;29.17;34.59;101498.11;1814557;79;20286;-72
2021/08/15 12:30:03;;;;;;;;;;;;;;;29.15;34.51;101502.75;1813234;79;20172;-72
2021/08/15 12:32:34;;;;;;;;;;;;;;;29.14;34.62;101487.37;1817009;77;20287;-72
2021/08/15 12:35:08;;;;;;;;;;;;;;;29.12;34.66;101492.64;1813384;78;20251;-73
2021/08/15 12:37:43;;;;;;;;;;;;;;;29.10;34.91;101490.75;1817833;79;20188;-74
2021/08/15 12:40:17;;;;;;;;;;;;;;;29.10;35.01;101488.70;1818473;78;20287;-73
2021/08/15 12:43:00;;;;;;;;;;;;;;;29.11;34.06;101490.36;1817911;79;20600;-72
2021/08/15 12:45:37;;;;;;;;;;;;;;;29.11;33.41;101491.80;1817798;79;20279;-75
2021/08/15 12:48:10;;;;;;;;;;;;;;;29.11;33.40;101486.07;1812192;79;20326;-71
2021/08/15 12:50:45;;;;;;;;;;;;;;;29.12;33.88;101483.47;1810485;78;20275;-71
2021/08/15 12:53:17;;;;;;;;;;;;;;;29.10;34.09;101482.98;1795944;78;20625;-72
2021/08/15 12:55:51;;;;;;;;;;;;;;;29.10;34.75;101489.33;1808900;78;20192;-72
2021/08/15 12:58:23;;;;;;;;;;;;;;;29.11;35.05;101483.20;1825359;77;20238;-70
2021/08/15 13:00:59;;;;;;;;;;;;;;;29.09;34.53;101476.22;1837513;78;20628;-71
2021/08/15 13:03:28;;;;;;;;;;;;;;;29.13;33.79;101477.97;1807037;78;20278;-72
2021/08/15 13:06:02;;;;;;;;;;;;;;;29.17;34.10;101474.59;1776788;80;20288;-72